Deer Creek, Indiana
Current Conditions -  °F | °C
As of 5:35 PM on Friday 24 Oct 2014 (Local Time) from KGGP Reporting Station
Broken Clouds Broken Clouds  
Wind Chill: 63°   Ceiling: 3200
Heat Index: 63°   Visibility: 10mi
Dew Point: 52°   Wind: 9mph
Humidity: 68%   Direction: 260°W
Pressure: 30.01"   Gusts: NA
Location:  40.5923°N, 86.4903°W
Report Text: KGGP 242135Z AUTO 26008KT 10SM BKN032 17/11 A3001 RMK AO2
Loading
Personal Weather Stations






























Interactive Weather Map New forecast layout! Learn more

10-Day Weather Forecast

Advertisements
Track Severe Weather on mobile